createdAt,value
2019-05-20T00:04:06.313Z,11.50
2019-05-20T00:08:15.204Z,11.50
2019-05-20T00:12:24.024Z,11.40
2019-05-20T00:16:32.956Z,11.30
2019-05-20T00:20:41.998Z,11.30
2019-05-20T00:24:50.946Z,11.20
2019-05-20T00:28:59.793Z,11.20
2019-05-20T00:33:08.709Z,11.10
2019-05-20T00:37:17.703Z,10.90
2019-05-20T00:41:26.555Z,10.70
2019-05-20T00:45:35.756Z,10.70
2019-05-20T00:49:44.643Z,10.60
2019-05-20T00:53:53.584Z,10.60
2019-05-20T00:58:02.486Z,10.60
2019-05-20T01:02:11.485Z,10.60
2019-05-20T01:06:20.616Z,10.60
2019-05-20T01:10:29.491Z,10.50
2019-05-20T01:14:38.576Z,10.50
2019-05-20T01:18:47.619Z,10.50
2019-05-20T01:22:56.609Z,10.40
2019-05-20T01:27:05.550Z,10.30
2019-05-20T01:31:14.520Z,10.20
2019-05-20T01:35:23.734Z,10.20
2019-05-20T01:39:32.675Z,10.10
2019-05-20T01:43:41.599Z,10.10
2019-05-20T01:47:50.581Z,10.10
2019-05-20T01:51:59.535Z,10.00
2019-05-20T01:56:08.494Z,10.00
2019-05-20T02:00:17.806Z,9.90
2019-05-20T02:04:26.797Z,9.80
2019-05-20T02:08:35.746Z,9.70
2019-05-20T02:12:44.575Z,9.70
2019-05-20T02:16:53.469Z,9.70
2019-05-20T02:21:02.553Z,9.60
2019-05-20T02:25:11.826Z,9.60
2019-05-20T02:29:20.697Z,9.60
2019-05-20T02:33:29.675Z,9.70
2019-05-20T02:37:38.574Z,9.80
2019-05-20T02:41:47.566Z,9.80
2019-05-20T02:45:56.432Z,9.90
2019-05-20T02:50:05.499Z,9.90
2019-05-20T02:54:59.179Z,10.00
2019-05-20T02:59:08.192Z,10.20
2019-05-20T03:03:17.121Z,10.20
2019-05-20T03:07:26.037Z,10.30
2019-05-20T03:11:35.056Z,10.40
2019-05-20T03:15:43.891Z,10.50
2019-05-20T03:19:52.872Z,10.50
2019-05-20T03:24:01.779Z,10.60
2019-05-20T03:28:10.783Z,10.70
2019-05-20T03:32:19.616Z,10.80
2019-05-20T03:36:28.499Z,10.90
2019-05-20T03:40:37.436Z,10.90
2019-05-20T03:44:46.438Z,10.90
2019-05-20T03:48:55.288Z,11.00
2019-05-20T03:53:04.348Z,11.00
2019-05-20T03:57:13.330Z,11.10
2019-05-20T04:01:22.174Z,11.10
2019-05-20T04:05:31.050Z,11.20
2019-05-20T04:09:40.059Z,11.20
2019-05-20T04:13:49.078Z,11.30
2019-05-20T04:17:57.954Z,11.30
2019-05-20T04:22:06.849Z,11.40
2019-05-20T04:26:15.878Z,11.50
2019-05-20T04:30:24.929Z,11.60
2019-05-20T04:34:34.066Z,11.60
2019-05-20T04:38:43.032Z,11.70
2019-05-20T04:42:51.959Z,11.70
2019-05-20T04:47:00.982Z,11.80
2019-05-20T04:51:09.786Z,11.90
2019-05-20T04:55:18.997Z,11.90
2019-05-20T04:59:27.809Z,11.90
2019-05-20T05:03:36.598Z,12.00
2019-05-20T05:07:45.546Z,12.10
2019-05-20T05:11:54.402Z,12.30
2019-05-20T05:16:03.437Z,12.40
2019-05-20T05:20:17.891Z,12.60
2019-05-20T05:24:23.429Z,12.80
2019-05-20T05:28:32.389Z,12.90
2019-05-20T05:32:41.878Z,13.10
2019-05-20T05:36:50.730Z,13.20
2019-05-20T05:40:59.533Z,13.40
2019-05-20T05:45:08.645Z,13.50
2019-05-20T05:49:17.632Z,13.70
2019-05-20T05:53:26.573Z,13.90
2019-05-20T05:57:35.497Z,14.10
2019-05-20T06:01:44.398Z,14.20
2019-05-20T06:06:10.742Z,14.20
2019-05-20T06:10:04.818Z,14.30
2019-05-20T06:14:13.640Z,14.30
2019-05-20T06:18:22.596Z,14.30
2019-05-20T06:22:31.399Z,14.40
2019-05-20T06:26:40.182Z,14.50
2019-05-20T06:30:49.134Z,14.50
2019-05-20T06:34:58.019Z,14.50
2019-05-20T06:39:14.314Z,14.60
2019-05-20T06:43:23.558Z,14.70
2019-05-20T06:47:32.378Z,14.90
2019-05-20T06:51:41.262Z,14.90
2019-05-20T06:55:50.127Z,14.90
2019-05-20T06:59:59.247Z,14.90
2019-05-20T07:04:08.144Z,14.90
2019-05-20T07:08:17.064Z,14.90
2019-05-20T07:12:40.051Z,15.00
2019-05-20T07:16:36.863Z,15.40
2019-05-20T07:20:45.694Z,15.70
2019-05-20T07:24:54.536Z,15.70
2019-05-20T07:29:03.385Z,15.80
2019-05-20T07:33:12.631Z,15.90
2019-05-20T07:37:21.448Z,15.90
2019-05-20T07:41:30.244Z,15.90
2019-05-20T07:45:39.180Z,16.00
2019-05-20T07:49:49.140Z,16.10
2019-05-20T07:53:58.139Z,16.30
2019-05-20T07:58:09.481Z,16.40
2019-05-20T08:02:18.551Z,16.50
2019-05-20T08:06:27.427Z,16.70
2019-05-20T08:10:36.280Z,16.90
2019-05-20T08:14:45.166Z,16.80
2019-05-20T08:18:53.961Z,16.60
2019-05-20T08:23:02.914Z,16.70
2019-05-20T08:27:11.906Z,17.00
2019-05-20T08:31:21.138Z,17.50
2019-05-20T08:35:30.167Z,17.90
2019-05-20T08:39:39.053Z,18.30
2019-05-20T08:43:47.867Z,18.50
2019-05-20T08:47:56.737Z,18.70
2019-05-20T08:52:05.642Z,18.70
2019-05-20T08:56:14.535Z,18.80
2019-05-20T09:00:25.410Z,19.00
2019-05-20T09:04:34.533Z,19.10
2019-05-20T09:08:43.401Z,19.20
2019-05-20T09:12:52.742Z,19.70
2019-05-20T09:17:01.545Z,19.30
2019-05-20T09:21:10.768Z,19.30
2019-05-20T09:25:26.030Z,19.20
2019-05-20T09:29:37.965Z,18.90
2019-05-20T09:33:45.710Z,19.10
2019-05-20T09:37:54.506Z,19.10
2019-05-20T09:42:03.480Z,19.20
2019-05-20T09:46:12.281Z,19.80
2019-05-20T09:50:21.174Z,20.00
2019-05-20T09:54:29.966Z,20.10
2019-05-20T09:58:38.754Z,20.10
2019-05-20T10:02:47.921Z,19.60
2019-05-20T10:06:57.133Z,19.80
2019-05-20T10:11:06.090Z,19.80
2019-05-20T10:15:15.049Z,19.80
2019-05-20T10:19:24.258Z,20.00
2019-05-20T10:23:33.044Z,20.50
2019-05-20T10:27:41.911Z,20.70
2019-05-20T10:31:50.888Z,20.80
2019-05-20T10:35:59.858Z,21.20
2019-05-20T10:40:09.503Z,21.40
2019-05-20T10:44:18.392Z,21.40
2019-05-20T10:48:27.250Z,20.70
2019-05-20T10:52:36.186Z,20.70
2019-05-20T10:56:44.990Z,20.70
2019-05-20T11:01:02.462Z,20.70
2019-05-20T11:05:05.091Z,20.50
2019-05-20T11:09:14.609Z,20.50
2019-05-20T11:13:23.703Z,20.60
2019-05-20T11:17:32.510Z,20.80
2019-05-20T11:21:41.378Z,21.00
2019-05-20T11:25:50.212Z,20.80
2019-05-20T11:29:59.109Z,20.80
2019-05-20T11:34:08.198Z,21.10
2019-05-20T11:38:17.742Z,21.10
2019-05-20T11:42:26.542Z,21.60
2019-05-20T11:46:35.422Z,22.10
2019-05-20T11:50:44.223Z,22.20
2019-05-20T11:54:53.098Z,22.20
2019-05-20T11:59:01.898Z,22.20
2019-05-20T12:03:10.770Z,22.00
2019-05-20T12:07:19.560Z,21.70
2019-05-20T12:11:28.422Z,21.40
2019-05-20T12:15:37.297Z,21.10
2019-05-20T12:19:46.106Z,21.00
2019-05-20T12:23:54.950Z,21.20
2019-05-20T12:28:04.238Z,21.20
2019-05-20T12:32:13.349Z,21.10
2019-05-20T12:36:22.140Z,21.30
2019-05-20T12:40:30.923Z,21.20
2019-05-20T12:44:39.718Z,21.30
2019-05-20T12:48:49.170Z,21.30
2019-05-20T12:52:58.164Z,21.30
2019-05-20T12:57:07.109Z,21.20
2019-05-20T13:01:15.921Z,21.10
2019-05-20T13:05:24.711Z,20.80
2019-05-20T13:09:33.762Z,20.70
2019-05-20T13:13:42.571Z,20.40
2019-05-20T13:17:51.366Z,20.20
2019-05-20T13:22:00.173Z,20.10
2019-05-20T13:26:08.977Z,20.00
2019-05-20T13:30:19.692Z,20.10
2019-05-20T13:34:28.507Z,20.20
2019-05-20T13:38:37.448Z,20.10
2019-05-20T13:42:46.482Z,20.10
2019-05-20T13:46:55.278Z,20.00
2019-05-20T13:51:04.152Z,19.90
2019-05-20T13:55:13.177Z,20.00
2019-05-20T13:59:22.176Z,20.30
2019-05-20T14:03:30.973Z,20.60
2019-05-20T14:07:40.141Z,20.50
2019-05-20T14:11:48.950Z,20.40
2019-05-20T14:15:57.832Z,20.30
2019-05-20T14:20:07.406Z,19.80
2019-05-20T14:24:16.206Z,19.40
2019-05-20T14:28:25.015Z,19.20
2019-05-20T14:32:33.821Z,18.90
2019-05-20T14:36:42.634Z,18.80
2019-05-20T14:40:51.743Z,18.70
2019-05-20T14:45:00.543Z,18.60
2019-05-20T14:49:09.331Z,18.50
2019-05-20T14:53:18.207Z,18.20
2019-05-20T14:57:27.084Z,18.00
2019-05-20T15:01:35.919Z,17.90
2019-05-20T15:05:45.051Z,17.70
2019-05-20T15:09:53.944Z,17.50
2019-05-20T15:14:03.403Z,17.50
2019-05-20T15:18:12.194Z,17.50
2019-05-20T15:22:21.061Z,17.40
2019-05-20T15:26:29.934Z,17.10
2019-05-20T15:30:38.729Z,17.10
2019-05-20T15:34:47.606Z,16.90
2019-05-20T15:38:56.423Z,16.90
2019-05-20T15:43:05.285Z,16.80
2019-05-20T15:47:14.225Z,16.70
2019-05-20T15:51:23.052Z,16.50
2019-05-20T15:55:32.245Z,16.30
2019-05-20T15:59:46.060Z,16.40
2019-05-20T16:03:51.782Z,16.40
2019-05-20T16:08:00.673Z,16.30
2019-05-20T16:12:09.833Z,16.20
2019-05-20T16:16:18.942Z,16.10
2019-05-20T16:20:27.810Z,16.10
2019-05-20T16:24:36.803Z,16.10
2019-05-20T16:28:45.602Z,15.90
2019-05-20T16:32:54.407Z,15.70
2019-05-20T16:37:03.546Z,15.70
2019-05-20T16:41:12.413Z,15.60
2019-05-20T16:45:21.451Z,15.50
2019-05-20T16:49:30.581Z,15.60
2019-05-20T16:53:39.721Z,15.60
2019-05-20T16:57:48.529Z,15.50
2019-05-20T17:01:57.400Z,15.50
2019-05-20T17:06:06.275Z,15.50
2019-05-20T17:10:15.223Z,15.40
2019-05-20T17:14:24.030Z,15.40
2019-05-20T17:18:32.910Z,15.50
2019-05-20T17:22:41.713Z,15.50
2019-05-20T17:26:50.577Z,15.40
2019-05-20T17:30:59.461Z,15.30
2019-05-20T17:35:08.419Z,15.10
2019-05-20T17:39:17.377Z,15.10
2019-05-20T17:43:26.270Z,15.00
2019-05-20T17:47:35.209Z,14.90
2019-05-20T17:51:44.024Z,14.80
2019-05-20T17:55:52.858Z,14.80
2019-05-20T18:00:01.671Z,14.80
2019-05-20T18:04:10.480Z,14.60
2019-05-20T18:08:19.362Z,14.50
2019-05-20T18:12:28.244Z,14.50
2019-05-20T18:16:37.166Z,14.40
2019-05-20T18:20:46.042Z,14.30
2019-05-20T18:24:55.001Z,14.10
2019-05-20T18:29:04.057Z,14.00
2019-05-20T18:33:12.861Z,14.00
2019-05-20T18:37:21.683Z,14.10
2019-05-20T18:41:30.535Z,14.10
2019-05-20T18:45:39.434Z,14.00
2019-05-20T18:49:48.248Z,14.00
2019-05-20T18:53:57.042Z,14.00
2019-05-20T18:58:05.900Z,14.00
2019-05-20T19:02:14.785Z,14.00
2019-05-20T19:06:23.663Z,14.00
2019-05-20T19:10:32.547Z,14.00
2019-05-20T19:14:41.806Z,14.00
2019-05-20T19:18:50.682Z,13.90
2019-05-20T19:22:59.562Z,13.80
2019-05-20T19:27:08.951Z,13.80
2019-05-20T19:31:17.990Z,13.90
2019-05-20T19:35:26.956Z,13.80
2019-05-20T19:39:35.775Z,13.90
2019-05-20T19:43:44.669Z,13.90
2019-05-20T19:47:53.498Z,13.80
2019-05-20T19:52:02.414Z,13.90
2019-05-20T19:56:11.289Z,13.80
2019-05-20T20:00:20.274Z,13.80
2019-05-20T20:04:29.069Z,13.80
2019-05-20T20:08:37.981Z,13.70
2019-05-20T20:12:46.866Z,13.70
2019-05-20T20:16:55.800Z,13.60
2019-05-20T20:21:04.677Z,13.60
2019-05-20T20:25:14.106Z,13.60
2019-05-20T20:29:22.895Z,13.60
2019-05-20T20:33:31.703Z,13.70
2019-05-20T20:37:40.589Z,13.60
2019-05-20T20:41:49.398Z,13.60
2019-05-20T20:45:58.198Z,13.50
2019-05-20T20:50:07.073Z,13.40
2019-05-20T20:54:15.885Z,13.40
2019-05-20T20:58:24.702Z,13.50
2019-05-20T21:02:33.523Z,13.50
2019-05-20T21:06:42.626Z,13.50
2019-05-20T21:10:51.447Z,13.50
2019-05-20T21:15:00.242Z,13.50
2019-05-20T21:19:09.032Z,13.50
2019-05-20T21:23:17.840Z,13.50
2019-05-20T21:27:26.654Z,13.50
2019-05-20T21:31:35.453Z,13.40
2019-05-20T21:35:45.437Z,13.40
2019-05-20T21:39:54.738Z,13.30
2019-05-20T21:44:03.716Z,13.30
2019-05-20T21:48:12.518Z,13.30
2019-05-20T21:52:21.385Z,13.30
2019-05-20T21:56:30.261Z,13.20
2019-05-20T22:00:48.193Z,13.30
2019-05-20T22:04:57.073Z,13.20
2019-05-20T22:09:06.501Z,13.10
2019-05-20T22:13:15.389Z,13.20
2019-05-20T22:17:24.337Z,13.10
2019-05-20T22:21:39.658Z,13.10
2019-05-20T22:25:48.809Z,13.10
2019-05-20T22:29:57.609Z,13.10
2019-05-20T22:34:06.413Z,13.10
2019-05-20T22:38:15.286Z,13.10
2019-05-20T22:42:24.092Z,13.10
2019-05-20T22:46:32.958Z,13.10
2019-05-20T22:50:41.758Z,13.00
2019-05-20T22:54:50.546Z,13.10
2019-05-20T22:58:59.342Z,13.10
2019-05-20T23:03:08.149Z,13.10
2019-05-20T23:07:16.928Z,13.10
2019-05-20T23:11:25.742Z,13.00
2019-05-20T23:15:34.679Z,13.00
2019-05-20T23:19:43.758Z,13.00
2019-05-20T23:23:52.569Z,12.90
2019-05-20T23:28:01.366Z,12.90
2019-05-20T23:32:10.152Z,13.00
2019-05-20T23:36:18.962Z,13.00
2019-05-20T23:40:27.763Z,13.00
2019-05-20T23:44:36.565Z,12.90
2019-05-20T23:48:45.365Z,12.90
2019-05-20T23:52:54.534Z,12.90
2019-05-20T23:57:03.404Z,12.90
